createdAt,value
2023-05-03T00:00:42.758Z,3.08
2023-05-03T00:01:44.570Z,3.17
2023-05-03T00:02:46.755Z,3.33
2023-05-03T00:03:52.712Z,2.95
2023-05-03T00:04:54.725Z,3.05
2023-05-03T00:05:56.803Z,2.75
2023-05-03T00:06:58.536Z,2.85
2023-05-03T00:08:00.932Z,2.75
2023-05-03T00:09:02.650Z,3.38
2023-05-03T00:10:05.064Z,2.92
2023-05-03T00:11:07.417Z,2.80
2023-05-03T00:12:09.165Z,3.75
2023-05-03T00:13:11.040Z,3.15
2023-05-03T00:14:12.807Z,3.00
2023-05-03T00:15:14.524Z,2.92
2023-05-03T00:16:16.222Z,2.83
2023-05-03T00:17:17.967Z,3.40
2023-05-03T00:18:19.720Z,3.28
2023-05-03T00:19:31.050Z,3.42
2023-05-03T00:20:33.433Z,3.47
2023-05-03T00:21:35.573Z,3.30
2023-05-03T00:22:37.289Z,3.20
2023-05-03T00:23:38.994Z,3.70
2023-05-03T00:24:40.760Z,3.40
2023-05-03T00:25:42.787Z,3.65
2023-05-03T00:26:44.486Z,3.78
2023-05-03T00:27:46.183Z,3.30
2023-05-03T00:28:47.912Z,3.75
2023-05-03T00:29:52.582Z,3.85
2023-05-03T00:30:54.607Z,4.00
2023-05-03T00:31:56.342Z,3.83
2023-05-03T00:32:58.065Z,4.10
2023-05-03T00:33:59.776Z,4.35
2023-05-03T00:35:01.807Z,3.97
2023-05-03T00:36:14.670Z,3.65
2023-05-03T00:37:16.382Z,3.75
2023-05-03T00:38:18.140Z,3.58
2023-05-03T00:39:19.870Z,2.95
2023-05-03T00:40:21.594Z,2.75
2023-05-03T00:41:24.505Z,2.80
2023-05-03T00:42:26.214Z,2.70
2023-05-03T00:43:28.144Z,2.53
2023-05-03T00:44:30.797Z,2.75
2023-05-03T00:45:34.363Z,2.65
2023-05-03T00:46:36.172Z,2.70
2023-05-03T00:47:38.634Z,2.50
2023-05-03T00:48:40.465Z,2.90
2023-05-03T00:49:42.645Z,2.50
2023-05-03T00:50:45.757Z,2.65
2023-05-03T00:51:47.669Z,3.22
2023-05-03T00:52:49.546Z,3.88
2023-05-03T00:53:51.886Z,2.83
2023-05-03T00:54:54.035Z,2.65
2023-05-03T00:55:55.966Z,3.65
2023-05-03T00:56:57.954Z,3.50
2023-05-03T00:57:59.669Z,3.55
2023-05-03T00:59:02.226Z,4.20
2023-05-03T01:00:04.568Z,3.47
2023-05-03T01:01:09.956Z,3.08
2023-05-03T01:02:11.668Z,3.15
2023-05-03T01:03:13.776Z,2.63
2023-05-03T01:04:16.463Z,2.83
2023-05-03T01:05:18.841Z,3.20
2023-05-03T01:06:33.636Z,2.60
2023-05-03T01:07:45.912Z,2.63
2023-05-03T01:08:59.873Z,3.03
2023-05-03T01:10:07.162Z,3.20
2023-05-03T01:11:17.188Z,2.97
2023-05-03T01:12:42.260Z,3.15
2023-05-03T01:13:53.385Z,3.28
2023-05-03T01:15:06.569Z,3.35
2023-05-03T01:16:31.910Z,3.28
2023-05-03T01:17:49.162Z,3.10
2023-05-03T01:18:55.064Z,3.30
2023-05-03T01:20:04.305Z,3.75
2023-05-03T01:21:09.642Z,3.30
2023-05-03T01:22:25.956Z,2.88
2023-05-03T01:23:42.844Z,3.20
2023-05-03T01:24:51.937Z,3.05
2023-05-03T01:25:54.632Z,3.80
2023-05-03T01:26:56.390Z,3.63
2023-05-03T01:27:58.108Z,3.22
2023-05-03T01:29:00.636Z,3.17
2023-05-03T01:30:07.930Z,3.65
2023-05-03T01:31:10.725Z,4.13
2023-05-03T01:32:23.586Z,3.85
2023-05-03T01:33:37.027Z,3.58
2023-05-03T01:34:51.059Z,3.20
2023-05-03T01:36:21.873Z,3.53
2023-05-03T01:37:23.581Z,3.45
2023-05-03T01:38:26.688Z,4.10
2023-05-03T01:39:37.415Z,3.70
2023-05-03T01:40:46.194Z,3.67
2023-05-03T01:41:51.058Z,3.60
2023-05-03T01:42:55.742Z,4.13
2023-05-03T01:43:57.698Z,4.00
2023-05-03T01:45:00.840Z,3.92
2023-05-03T01:46:02.689Z,3.53
2023-05-03T01:47:04.501Z,3.60
2023-05-03T01:48:14.931Z,4.05
2023-05-03T01:49:16.824Z,4.20
2023-05-03T01:50:18.671Z,4.25
2023-05-03T01:51:20.373Z,3.58
2023-05-03T01:52:24.220Z,3.92
2023-05-03T01:53:25.984Z,4.63
2023-05-03T01:54:27.737Z,3.55
2023-05-03T01:55:29.499Z,3.58
2023-05-03T01:56:31.823Z,4.43
2023-05-03T01:57:33.528Z,3.53
2023-05-03T01:58:35.270Z,4.40
2023-05-03T01:59:37.042Z,4.70
2023-05-03T02:00:38.892Z,4.63
2023-05-03T02:01:40.846Z,4.90
2023-05-03T02:02:42.671Z,4.78
2023-05-03T02:03:44.460Z,4.45
2023-05-03T02:04:46.413Z,5.22
2023-05-03T02:05:48.741Z,4.75
2023-05-03T02:06:50.555Z,4.68
2023-05-03T02:07:52.322Z,4.50
2023-05-03T02:08:54.525Z,4.60
2023-05-03T02:09:56.219Z,4.57
2023-05-03T02:10:57.956Z,4.63
2023-05-03T02:11:59.646Z,4.82
2023-05-03T02:13:01.453Z,5.30
2023-05-03T02:14:03.151Z,4.45
2023-05-03T02:15:05.400Z,4.65
2023-05-03T02:16:07.248Z,5.03
2023-05-03T02:17:09.143Z,4.80
2023-05-03T02:18:10.928Z,5.05
2023-05-03T02:19:12.800Z,5.13
2023-05-03T02:20:14.510Z,5.47
2023-05-03T02:21:16.441Z,4.85
2023-05-03T02:22:18.394Z,5.20
2023-05-03T02:23:20.104Z,5.22
2023-05-03T02:24:23.604Z,4.22
2023-05-03T02:25:27.490Z,5.03
2023-05-03T02:26:29.826Z,4.75
2023-05-03T02:27:31.626Z,4.85
2023-05-03T02:28:34.176Z,4.25
2023-05-03T02:29:36.146Z,5.05
2023-05-03T02:30:37.864Z,4.63
2023-05-03T02:31:39.601Z,4.07
2023-05-03T02:32:41.452Z,4.18
2023-05-03T02:33:43.336Z,4.53
2023-05-03T02:34:47.348Z,4.68
2023-05-03T02:35:49.282Z,4.20
2023-05-03T02:36:50.960Z,4.22
2023-05-03T02:37:52.699Z,3.67
2023-05-03T02:38:54.517Z,4.07
2023-05-03T02:39:56.293Z,3.72
2023-05-03T02:40:58.116Z,3.85
2023-05-03T02:41:59.871Z,3.88
2023-05-03T02:43:02.623Z,3.70
2023-05-03T02:44:04.407Z,3.58
2023-05-03T02:45:06.739Z,3.63
2023-05-03T02:46:08.492Z,3.40
2023-05-03T02:47:11.340Z,3.60
2023-05-03T02:48:13.115Z,3.78
2023-05-03T02:49:14.831Z,3.50
2023-05-03T02:50:16.654Z,3.60
2023-05-03T02:51:18.353Z,3.53
2023-05-03T02:52:20.101Z,3.80
2023-05-03T02:53:22.038Z,3.50
2023-05-03T02:54:24.176Z,3.55
2023-05-03T02:55:26.074Z,3.65
2023-05-03T02:56:28.609Z,4.15
2023-05-03T02:57:30.428Z,3.60
2023-05-03T02:58:32.168Z,3.58
2023-05-03T02:59:36.946Z,3.42
2023-05-03T03:00:38.676Z,3.70
2023-05-03T03:01:40.459Z,4.15
2023-05-03T03:02:42.504Z,3.90
2023-05-03T03:03:44.505Z,3.85
2023-05-03T03:04:46.291Z,3.95
2023-05-03T03:05:48.020Z,3.55
2023-05-03T03:06:49.820Z,3.47
2023-05-03T03:07:51.796Z,3.53
2023-05-03T03:08:53.589Z,3.80
2023-05-03T03:09:55.380Z,3.70
2023-05-03T03:10:57.143Z,3.50
2023-05-03T03:11:59.070Z,3.60
2023-05-03T03:13:00.869Z,3.50
2023-05-03T03:14:02.577Z,3.45
2023-05-03T03:15:04.821Z,3.42
2023-05-03T03:16:10.044Z,3.40
2023-05-03T03:17:12.389Z,3.35
2023-05-03T03:18:14.238Z,3.22
2023-05-03T03:19:15.927Z,3.95
2023-05-03T03:20:17.800Z,3.17
2023-05-03T03:21:19.811Z,3.30
2023-05-03T03:22:21.623Z,3.20
2023-05-03T03:23:23.525Z,3.85
2023-05-03T03:24:25.308Z,3.53
2023-05-03T03:25:27.038Z,3.63
2023-05-03T03:26:28.888Z,3.60
2023-05-03T03:27:30.760Z,3.50
2023-05-03T03:28:32.492Z,3.90
2023-05-03T03:29:35.443Z,3.53
2023-05-03T03:30:37.160Z,3.95
2023-05-03T03:31:38.895Z,4.05
2023-05-03T03:32:41.089Z,3.60
2023-05-03T03:33:42.819Z,3.40
2023-05-03T03:34:44.512Z,3.85
2023-05-03T03:35:46.299Z,3.47
2023-05-03T03:36:48.013Z,3.72
2023-05-03T03:37:49.806Z,3.72
2023-05-03T03:38:51.532Z,3.50
2023-05-03T03:39:54.104Z,3.65
2023-05-03T03:40:55.870Z,4.03
2023-05-03T03:41:57.725Z,3.88
2023-05-03T03:42:59.470Z,3.33
2023-05-03T03:44:01.260Z,3.90
2023-05-03T03:45:03.114Z,3.92
2023-05-03T03:46:04.922Z,3.97
2023-05-03T03:47:07.286Z,3.95
2023-05-03T03:48:09.127Z,3.95
2023-05-03T03:49:11.022Z,3.78
2023-05-03T03:50:12.787Z,4.25
2023-05-03T03:51:14.521Z,4.25
2023-05-03T03:52:16.297Z,3.85
2023-05-03T03:53:18.024Z,4.05
2023-05-03T03:54:19.750Z,3.75
2023-05-03T03:55:21.596Z,3.65
2023-05-03T03:56:23.907Z,3.78
2023-05-03T03:57:26.971Z,3.60
2023-05-03T03:58:28.814Z,3.53
2023-05-03T03:59:30.740Z,4.05
2023-05-03T04:00:33.858Z,3.83
2023-05-03T04:01:35.602Z,4.22
2023-05-03T04:02:37.604Z,4.25
2023-05-03T04:03:39.493Z,4.20
2023-05-03T04:04:41.567Z,4.10
2023-05-03T04:05:43.292Z,3.75
2023-05-03T04:06:45.065Z,4.28
2023-05-03T04:07:46.804Z,4.07
2023-05-03T04:08:48.535Z,4.20
2023-05-03T04:09:50.375Z,4.63
2023-05-03T04:10:52.137Z,4.28
2023-05-03T04:11:54.186Z,4.50
2023-05-03T04:12:56.051Z,4.65
2023-05-03T04:13:57.784Z,4.70
2023-05-03T04:14:59.475Z,5.72
2023-05-03T04:16:02.692Z,4.68
2023-05-03T04:17:06.474Z,5.22
2023-05-03T04:18:09.015Z,5.47
2023-05-03T04:19:10.962Z,4.65
2023-05-03T04:20:13.967Z,5.47
2023-05-03T04:21:15.830Z,5.50
2023-05-03T04:22:17.525Z,4.82
2023-05-03T04:23:19.246Z,5.43
2023-05-03T04:24:21.336Z,5.00
2023-05-03T04:25:24.080Z,4.90
2023-05-03T04:26:31.787Z,4.53
2023-05-03T04:27:34.483Z,5.18
2023-05-03T04:28:36.796Z,11.15
2023-05-03T04:29:38.810Z,6.47
2023-05-03T04:30:41.906Z,5.97
2023-05-03T04:31:43.635Z,5.10
2023-05-03T04:32:45.375Z,5.75
2023-05-03T04:33:47.132Z,4.95
2023-05-03T04:34:53.383Z,4.93
2023-05-03T04:35:56.147Z,5.15
2023-05-03T04:36:58.157Z,5.65
2023-05-03T04:37:59.863Z,5.43
2023-05-03T04:39:01.575Z,5.50
2023-05-03T04:40:07.444Z,5.25
2023-05-03T04:41:10.298Z,6.13
2023-05-03T04:42:15.451Z,4.90
2023-05-03T04:43:17.154Z,4.95
2023-05-03T04:44:19.027Z,4.63
2023-05-03T04:45:21.187Z,4.55
2023-05-03T04:46:22.940Z,4.38
2023-05-03T04:47:25.399Z,4.70
2023-05-03T04:48:27.171Z,3.97
2023-05-03T04:49:28.848Z,4.45
2023-05-03T04:50:30.669Z,3.95
2023-05-03T04:51:32.422Z,4.97
2023-05-03T04:52:34.605Z,4.72
2023-05-03T04:53:36.350Z,4.10
2023-05-03T04:54:38.069Z,4.63
2023-05-03T04:55:39.822Z,5.28
2023-05-03T04:56:41.542Z,4.85
2023-05-03T04:57:43.636Z,5.90
2023-05-03T04:58:45.422Z,4.53
2023-05-03T04:59:47.243Z,5.20
2023-05-03T05:00:49.831Z,4.40
2023-05-03T05:01:51.675Z,4.90
2023-05-03T05:02:53.483Z,5.38
2023-05-03T05:03:55.437Z,4.75
2023-05-03T05:04:57.176Z,6.03
2023-05-03T05:05:59.028Z,5.70
2023-05-03T05:07:00.742Z,5.13
2023-05-03T05:08:02.490Z,6.28
2023-05-03T05:09:07.492Z,5.05
2023-05-03T05:10:09.837Z,4.93
2023-05-03T05:11:13.387Z,6.00
2023-05-03T05:12:15.141Z,5.32
2023-05-03T05:13:17.433Z,5.30
2023-05-03T05:14:19.304Z,5.85
2023-05-03T05:15:21.010Z,6.15
2023-05-03T05:16:22.922Z,5.47
2023-05-03T05:17:26.896Z,5.78
2023-05-03T05:18:28.854Z,6.30
2023-05-03T05:19:30.797Z,5.13
2023-05-03T05:20:32.578Z,5.20
2023-05-03T05:21:34.494Z,5.88
2023-05-03T05:22:36.422Z,5.47
2023-05-03T05:23:38.154Z,6.20
2023-05-03T05:24:39.904Z,5.85
2023-05-03T05:25:41.670Z,5.07
2023-05-03T05:26:44.008Z,5.13
2023-05-03T05:27:46.190Z,5.40
2023-05-03T05:28:47.870Z,4.97
2023-05-03T05:29:49.614Z,5.10
2023-05-03T05:30:51.802Z,5.43
2023-05-03T05:31:53.744Z,5.53
2023-05-03T05:32:55.514Z,6.28
2023-05-03T05:33:57.268Z,6.32
2023-05-03T05:34:59.068Z,6.00
2023-05-03T05:36:00.914Z,5.65
2023-05-03T05:37:03.026Z,5.57
2023-05-03T05:38:04.852Z,5.65
2023-05-03T05:39:06.840Z,5.82
2023-05-03T05:40:09.257Z,5.65
2023-05-03T05:41:10.949Z,5.70
2023-05-03T05:42:12.680Z,5.88
2023-05-03T05:43:14.374Z,5.47
2023-05-03T05:44:16.130Z,5.88
2023-05-03T05:45:18.305Z,5.35
2023-05-03T05:46:23.462Z,5.57
2023-05-03T05:47:25.520Z,5.35
2023-05-03T05:48:27.419Z,5.80
2023-05-03T05:49:29.214Z,5.85
2023-05-03T05:50:31.750Z,5.75
2023-05-03T05:51:33.442Z,5.75
2023-05-03T05:52:35.160Z,5.95
2023-05-03T05:53:37.304Z,5.85
2023-05-03T05:54:39.013Z,5.68
2023-05-03T05:55:43.539Z,5.93
2023-05-03T05:56:45.237Z,6.45
2023-05-03T05:57:47.118Z,5.80
2023-05-03T05:58:48.950Z,6.47
2023-05-03T05:59:52.086Z,5.75
2023-05-03T06:00:58.699Z,5.93
2023-05-03T06:02:03.191Z,6.15
2023-05-03T06:03:05.692Z,5.53
2023-05-03T06:04:08.960Z,5.47
2023-05-03T06:05:11.542Z,5.43
2023-05-03T06:06:13.586Z,5.38
2023-05-03T06:07:16.765Z,4.93
2023-05-03T06:08:18.549Z,4.55
2023-05-03T06:09:24.800Z,4.53
2023-05-03T06:10:26.969Z,5.03
2023-05-03T06:11:29.672Z,4.40
2023-05-03T06:12:32.615Z,4.38
2023-05-03T06:13:38.659Z,4.97
2023-05-03T06:14:46.274Z,4.70
2023-05-03T06:15:54.215Z,4.90
2023-05-03T06:16:56.252Z,4.97
2023-05-03T06:17:58.074Z,5.03
2023-05-03T06:19:00.142Z,4.47
2023-05-03T06:20:02.287Z,4.78
2023-05-03T06:21:04.388Z,4.70
2023-05-03T06:22:06.153Z,4.63
2023-05-03T06:23:07.928Z,4.47
2023-05-03T06:24:09.751Z,4.28
2023-05-03T06:25:15.068Z,4.70
2023-05-03T06:26:17.798Z,4.35
2023-05-03T06:27:19.497Z,4.32
2023-05-03T06:28:21.285Z,4.03
2023-05-03T06:29:23.029Z,4.00
2023-05-03T06:30:25.932Z,3.90
2023-05-03T06:31:27.910Z,4.20
2023-05-03T06:32:30.053Z,4.15
2023-05-03T06:33:31.855Z,4.38
2023-05-03T06:34:33.568Z,4.35
2023-05-03T06:35:35.255Z,4.50
2023-05-03T06:36:37.950Z,4.75
2023-05-03T06:37:39.920Z,4.70
2023-05-03T06:38:41.674Z,4.07
2023-05-03T06:39:43.396Z,4.15
2023-05-03T06:40:46.154Z,3.97
2023-05-03T06:41:47.915Z,3.65
2023-05-03T06:42:49.667Z,4.18
2023-05-03T06:43:51.369Z,3.55
2023-05-03T06:44:53.138Z,3.33
2023-05-03T06:45:55.000Z,3.50
2023-05-03T06:46:56.850Z,4.20
2023-05-03T06:47:58.866Z,4.28
2023-05-03T06:49:00.861Z,4.18
2023-05-03T06:50:03.064Z,3.90
2023-05-03T06:51:05.323Z,4.57
2023-05-03T06:52:11.477Z,3.92
2023-05-03T06:53:13.442Z,3.95
2023-05-03T06:54:15.378Z,3.42
2023-05-03T06:55:17.660Z,4.10
2023-05-03T06:56:19.398Z,4.25
2023-05-03T06:57:21.507Z,3.80
2023-05-03T06:58:23.268Z,4.30
2023-05-03T06:59:25.012Z,4.00
2023-05-03T07:00:26.914Z,3.83
2023-05-03T07:01:28.666Z,4.28
2023-05-03T07:02:30.452Z,3.92
2023-05-03T07:03:32.426Z,4.40
2023-05-03T07:04:34.249Z,4.50
2023-05-03T07:05:36.155Z,3.30
2023-05-03T07:06:54.767Z,3.78
2023-05-03T07:07:58.051Z,4.03
2023-05-03T07:08:59.738Z,5.05
2023-05-03T07:10:01.761Z,4.95
2023-05-03T07:11:04.377Z,4.57
2023-05-03T07:12:06.246Z,4.78
2023-05-03T07:13:07.970Z,4.30
2023-05-03T07:14:09.654Z,4.53
2023-05-03T07:15:11.531Z,4.32
2023-05-03T07:16:13.278Z,4.30
2023-05-03T07:17:14.992Z,5.03
2023-05-03T07:18:16.773Z,4.13
2023-05-03T07:19:18.538Z,3.92
2023-05-03T07:20:20.519Z,4.38
2023-05-03T07:21:22.241Z,3.85
2023-05-03T07:22:25.474Z,4.50
2023-05-03T07:23:30.233Z,4.07
2023-05-03T07:24:31.977Z,4.50
2023-05-03T07:25:34.461Z,5.18
2023-05-03T07:26:36.213Z,4.85
2023-05-03T07:27:38.046Z,4.10
2023-05-03T07:28:39.760Z,4.80
2023-05-03T07:29:41.450Z,4.78
2023-05-03T07:30:43.168Z,5.57
2023-05-03T07:31:47.650Z,5.35
2023-05-03T07:32:50.846Z,4.00
2023-05-03T07:33:52.747Z,4.45
2023-05-03T07:34:54.565Z,4.53
2023-05-03T07:35:56.250Z,4.50
2023-05-03T07:36:57.948Z,4.70
2023-05-03T07:37:59.846Z,4.28
2023-05-03T07:39:01.572Z,3.97
2023-05-03T07:40:06.763Z,4.90
2023-05-03T07:41:08.633Z,4.47
2023-05-03T07:42:10.347Z,4.30
2023-05-03T07:43:12.323Z,4.65
2023-05-03T07:44:14.001Z,4.78
2023-05-03T07:45:15.876Z,4.47
2023-05-03T07:46:17.661Z,3.75
2023-05-03T07:47:19.402Z,3.58
2023-05-03T07:48:21.113Z,3.97
2023-05-03T07:49:22.921Z,4.40
2023-05-03T07:50:24.926Z,4.25
2023-05-03T07:51:26.970Z,4.10
2023-05-03T07:52:28.673Z,3.63
2023-05-03T07:53:30.515Z,3.55
2023-05-03T07:54:32.283Z,3.88
2023-05-03T07:55:36.619Z,3.78
2023-05-03T07:56:38.326Z,3.78
2023-05-03T07:57:40.018Z,3.90
2023-05-03T07:58:42.629Z,3.92
2023-05-03T07:59:45.578Z,3.55
2023-05-03T08:00:47.301Z,4.07
2023-05-03T08:01:49.158Z,4.03
2023-05-03T08:02:51.015Z,4.25
2023-05-03T08:03:53.814Z,4.50
2023-05-03T08:04:56.608Z,4.05
2023-05-03T08:05:58.400Z,4.47
2023-05-03T08:07:04.524Z,4.00
2023-05-03T08:08:06.700Z,3.83
2023-05-03T08:09:09.100Z,4.55
2023-05-03T08:10:11.394Z,4.45
2023-05-03T08:11:13.125Z,4.65
2023-05-03T08:12:14.897Z,4.53
2023-05-03T08:13:17.318Z,3.92
2023-05-03T08:14:19.022Z,4.07
2023-05-03T08:15:20.858Z,3.65
2023-05-03T08:16:22.835Z,4.60
2023-05-03T08:17:24.812Z,4.00
2023-05-03T08:18:27.084Z,3.85
2023-05-03T08:19:28.828Z,3.65
2023-05-03T08:20:31.215Z,3.47
2023-05-03T08:21:33.656Z,3.72
2023-05-03T08:22:38.223Z,4.32
2023-05-03T08:23:39.908Z,4.03
2023-05-03T08:24:42.548Z,4.30
2023-05-03T08:25:45.486Z,3.85
2023-05-03T08:26:48.518Z,4.15
2023-05-03T08:27:50.211Z,3.30
2023-05-03T08:28:51.996Z,3.72
2023-05-03T08:29:53.720Z,3.95
2023-05-03T08:30:55.800Z,3.70
2023-05-03T08:31:58.613Z,3.40
2023-05-03T08:33:00.468Z,3.35
2023-05-03T08:34:03.800Z,3.67
2023-05-03T08:35:07.535Z,3.60
2023-05-03T08:36:09.567Z,3.38
2023-05-03T08:37:11.280Z,3.40
2023-05-03T08:38:13.986Z,3.72
2023-05-03T08:39:15.716Z,3.60
2023-05-03T08:40:17.901Z,3.47
2023-05-03T08:41:31.876Z,3.65
2023-05-03T08:42:33.921Z,3.65
2023-05-03T08:43:39.099Z,3.42
2023-05-03T08:44:48.536Z,3.10
2023-05-03T08:45:50.332Z,3.70
2023-05-03T08:46:52.397Z,3.70
2023-05-03T08:47:55.437Z,3.30
2023-05-03T08:48:59.060Z,3.83
2023-05-03T08:50:04.102Z,3.30
2023-05-03T08:51:10.151Z,4.00
2023-05-03T08:52:14.262Z,4.05
2023-05-03T08:53:16.007Z,3.38
2023-05-03T08:54:20.727Z,3.83
2023-05-03T08:55:22.629Z,4.03
2023-05-03T08:56:25.202Z,3.42
2023-05-03T08:57:28.082Z,3.70
2023-05-03T08:58:29.832Z,3.80
2023-05-03T08:59:31.582Z,3.72
2023-05-03T09:00:33.369Z,3.45
2023-05-03T09:01:42.006Z,3.70
2023-05-03T09:02:43.853Z,3.70
2023-05-03T09:03:50.788Z,3.47
2023-05-03T09:04:53.149Z,3.90
2023-05-03T09:05:54.892Z,4.55
2023-05-03T09:07:08.747Z,4.10
2023-05-03T09:08:12.759Z,4.65
2023-05-03T09:09:15.955Z,3.75
2023-05-03T09:10:24.666Z,4.03
2023-05-03T09:11:31.197Z,4.20
2023-05-03T09:12:36.092Z,4.22
2023-05-03T09:13:37.780Z,4.13
2023-05-03T09:14:44.512Z,3.80
2023-05-03T09:15:56.367Z,4.00
2023-05-03T09:17:14.486Z,4.35
2023-05-03T09:18:18.913Z,3.78
2023-05-03T09:19:21.745Z,4.00
2023-05-03T09:20:35.450Z,3.60
2023-05-03T09:21:38.245Z,4.30
2023-05-03T09:22:52.594Z,3.47
2023-05-03T09:23:54.444Z,3.63
2023-05-03T09:24:58.845Z,3.80
2023-05-03T09:26:00.902Z,3.88
2023-05-03T09:27:17.652Z,3.55
2023-05-03T09:28:20.379Z,4.15
2023-05-03T09:29:30.407Z,4.03
2023-05-03T09:30:32.184Z,4.03
2023-05-03T09:31:35.347Z,3.88
2023-05-03T09:32:48.410Z,4.32
2023-05-03T09:33:50.276Z,3.88
2023-05-03T09:34:52.050Z,3.95
2023-05-03T09:36:12.044Z,4.05
2023-05-03T09:37:14.782Z,4.47
2023-05-03T09:38:27.469Z,3.88
2023-05-03T09:39:29.653Z,3.25
2023-05-03T09:40:31.492Z,4.28
2023-05-03T09:41:33.206Z,4.20
2023-05-03T09:42:34.982Z,4.30
2023-05-03T09:43:48.949Z,4.47
2023-05-03T09:44:54.087Z,3.78
2023-05-03T09:46:10.463Z,4.40
2023-05-03T09:47:12.477Z,4.70
2023-05-03T09:48:14.383Z,4.22
2023-05-03T09:49:18.108Z,4.50
2023-05-03T09:50:20.333Z,5.00
2023-05-03T09:51:23.854Z,4.90
2023-05-03T09:52:30.586Z,4.40
2023-05-03T09:53:33.026Z,4.57
2023-05-03T09:54:38.088Z,4.40
2023-05-03T09:55:40.753Z,4.78
2023-05-03T09:56:44.865Z,4.15
2023-05-03T09:57:48.327Z,4.72
2023-05-03T09:58:50.037Z,4.53
2023-05-03T09:59:52.058Z,4.45
2023-05-03T10:00:54.672Z,4.60
2023-05-03T10:02:01.691Z,4.18
2023-05-03T10:03:08.567Z,4.40
2023-05-03T10:04:11.540Z,5.00
2023-05-03T10:05:14.075Z,4.20
2023-05-03T10:06:30.151Z,4.53
2023-05-03T10:07:32.561Z,3.72
2023-05-03T10:08:39.384Z,3.85
2023-05-03T10:09:45.789Z,4.47
2023-05-03T10:10:51.991Z,4.30
2023-05-03T10:11:55.193Z,4.70
2023-05-03T10:12:57.762Z,4.10
2023-05-03T10:13:59.484Z,3.92
2023-05-03T10:15:06.254Z,4.38
2023-05-03T10:16:14.247Z,4.60
2023-05-03T10:17:35.769Z,4.30
2023-05-03T10:18:56.735Z,4.78
2023-05-03T10:20:27.416Z,4.03
2023-05-03T10:21:56.288Z,4.37
2023-05-03T10:23:15.924Z,4.43
2023-05-03T10:24:17.902Z,4.72
2023-05-03T10:25:19.654Z,4.43
2023-05-03T10:26:22.683Z,4.30
2023-05-03T10:27:24.645Z,4.50
2023-05-03T10:28:26.387Z,4.30
2023-05-03T10:29:37.724Z,4.25
2023-05-03T10:30:40.691Z,4.00
2023-05-03T10:31:47.497Z,3.42
2023-05-03T10:32:49.466Z,3.40
2023-05-03T10:33:52.218Z,3.90
2023-05-03T10:35:18.088Z,3.72
2023-05-03T10:36:19.856Z,3.80
2023-05-03T10:37:26.872Z,3.28
2023-05-03T10:38:29.582Z,3.88
2023-05-03T10:39:31.313Z,4.25
2023-05-03T10:40:46.460Z,3.80
2023-05-03T10:41:58.867Z,3.70
2023-05-03T10:43:00.968Z,3.72
2023-05-03T10:44:02.787Z,4.15
2023-05-03T10:45:07.139Z,4.10
2023-05-03T10:46:31.505Z,3.80
2023-05-03T10:47:36.168Z,3.83
2023-05-03T10:48:37.993Z,3.65
2023-05-03T10:49:42.378Z,4.47
2023-05-03T10:50:44.163Z,4.45
2023-05-03T10:51:46.079Z,3.97
2023-05-03T10:52:48.449Z,4.20
2023-05-03T10:53:50.161Z,3.78
2023-05-03T10:54:52.623Z,3.95
2023-05-03T10:56:11.152Z,4.10
2023-05-03T10:57:13.517Z,3.53
2023-05-03T10:58:17.053Z,3.97
2023-05-03T10:59:19.120Z,4.30
2023-05-03T11:00:31.282Z,4.45
2023-05-03T11:01:33.174Z,4.20
2023-05-03T11:02:40.734Z,4.55
2023-05-03T11:03:54.645Z,4.50
2023-05-03T11:05:00.361Z,3.83
2023-05-03T11:06:03.443Z,4.35
2023-05-03T11:07:05.267Z,4.15
2023-05-03T11:08:13.578Z,4.28
2023-05-03T11:09:15.828Z,4.22
2023-05-03T11:10:18.966Z,4.80
2023-05-03T11:11:21.186Z,4.90
2023-05-03T11:12:22.929Z,4.65
2023-05-03T11:13:24.865Z,5.30
2023-05-03T11:14:26.585Z,4.93
2023-05-03T11:15:28.364Z,5.63
2023-05-03T11:16:31.090Z,5.43
2023-05-03T11:17:32.989Z,5.38
2023-05-03T11:18:34.775Z,5.10
2023-05-03T11:19:36.537Z,5.72
2023-05-03T11:20:38.691Z,4.35
2023-05-03T11:21:40.653Z,4.70
2023-05-03T11:22:42.375Z,5.38
2023-05-03T11:23:44.993Z,5.05
2023-05-03T11:24:47.268Z,5.20
2023-05-03T11:25:51.428Z,5.45
2023-05-03T11:26:53.230Z,5.43
2023-05-03T11:27:55.095Z,5.50
2023-05-03T11:28:57.177Z,5.15
2023-05-03T11:29:59.511Z,4.85
2023-05-03T11:31:02.308Z,5.10
2023-05-03T11:32:06.547Z,4.80
2023-05-03T11:33:09.270Z,5.20
2023-05-03T11:34:12.674Z,5.22
2023-05-03T11:35:17.724Z,4.90
2023-05-03T11:36:20.323Z,4.43
2023-05-03T11:37:22.019Z,4.60
2023-05-03T11:38:23.800Z,4.18
2023-05-03T11:39:25.980Z,4.47
2023-05-03T11:40:27.912Z,5.03
2023-05-03T11:41:29.593Z,4.70
2023-05-03T11:42:31.310Z,4.75
2023-05-03T11:43:33.083Z,4.32
2023-05-03T11:44:35.166Z,4.70
2023-05-03T11:45:44.289Z,5.72
2023-05-03T11:46:47.508Z,5.18
2023-05-03T11:47:49.798Z,4.70
2023-05-03T11:48:51.582Z,5.57
2023-05-03T11:49:57.934Z,5.53
2023-05-03T11:50:59.662Z,5.00
2023-05-03T11:52:01.621Z,5.20
2023-05-03T11:53:04.515Z,5.57
2023-05-03T11:54:20.990Z,5.40
2023-05-03T11:55:27.498Z,5.13
2023-05-03T11:56:30.182Z,5.30
2023-05-03T11:57:32.492Z,5.40
2023-05-03T11:58:34.786Z,5.78
2023-05-03T11:59:40.478Z,5.18
2023-05-03T12:00:50.790Z,5.75
2023-05-03T12:01:53.728Z,4.78
2023-05-03T12:03:00.062Z,5.30
2023-05-03T12:04:05.665Z,5.45
2023-05-03T12:05:10.202Z,4.78
2023-05-03T12:06:12.726Z,5.40
2023-05-03T12:07:18.705Z,5.32
2023-05-03T12:08:35.617Z,5.13
2023-05-03T12:09:40.125Z,5.20
2023-05-03T12:10:42.942Z,5.85
2023-05-03T12:11:47.865Z,5.63
2023-05-03T12:12:57.609Z,5.53
2023-05-03T12:14:02.554Z,5.50
2023-05-03T12:15:07.805Z,5.32
2023-05-03T12:16:14.160Z,5.00
2023-05-03T12:17:33.965Z,4.93
2023-05-03T12:18:57.871Z,5.38
2023-05-03T12:24:34.413Z,6.07
2023-05-03T12:25:39.686Z,5.63
2023-05-03T12:26:42.523Z,5.60
2023-05-03T12:27:46.133Z,5.88
2023-05-03T12:28:51.462Z,5.43
2023-05-03T12:29:53.271Z,5.95
2023-05-03T12:30:57.505Z,5.68
2023-05-03T12:32:03.559Z,5.78
2023-05-03T12:33:07.382Z,6.20
2023-05-03T12:34:32.884Z,6.20
2023-05-03T12:35:35.915Z,6.40
2023-05-03T12:36:39.129Z,6.85
2023-05-03T12:37:43.472Z,5.70
2023-05-03T12:38:45.831Z,5.72
2023-05-03T12:39:58.540Z,5.93
2023-05-03T12:41:09.497Z,5.70
2023-05-03T12:42:13.729Z,5.68
2023-05-03T12:43:16.945Z,5.68
2023-05-03T12:44:22.433Z,5.70
2023-05-03T12:45:28.584Z,6.07
2023-05-03T12:46:34.472Z,5.75
2023-05-03T12:47:37.487Z,5.80
2023-05-03T12:48:39.523Z,5.10
2023-05-03T12:49:45.791Z,5.28
2023-05-03T12:50:51.502Z,5.53
2023-05-03T12:52:11.054Z,6.15
2023-05-03T12:53:17.958Z,5.63
2023-05-03T12:54:20.131Z,4.35
2023-05-03T12:55:25.353Z,4.88
2023-05-03T12:56:32.164Z,4.95
2023-05-03T12:57:37.388Z,6.05
2023-05-03T12:58:58.390Z,4.88
2023-05-03T13:00:03.318Z,4.90
2023-05-03T13:01:37.907Z,5.63
2023-05-03T13:03:34.211Z,5.25
2023-05-03T13:04:56.019Z,5.32
2023-05-03T13:05:58.784Z,4.95
2023-05-03T13:07:01.403Z,4.93
2023-05-03T13:08:09.360Z,5.68
2023-05-03T13:09:19.194Z,5.63
2023-05-03T13:10:23.247Z,5.32
2023-05-03T13:11:25.542Z,4.60
2023-05-03T13:12:27.469Z,5.55
2023-05-03T13:13:29.235Z,4.68
2023-05-03T13:14:31.061Z,5.93
2023-05-03T13:15:35.108Z,5.60
2023-05-03T13:16:39.010Z,5.50
2023-05-03T13:17:40.837Z,5.57
2023-05-03T13:18:43.219Z,6.30
2023-05-03T13:19:45.090Z,5.88
2023-05-03T13:20:49.121Z,5.68
2023-05-03T13:21:50.897Z,5.68
2023-05-03T13:22:52.601Z,5.43
2023-05-03T13:23:54.314Z,5.60
2023-05-03T13:24:56.239Z,5.40
2023-05-03T13:25:59.392Z,6.00
2023-05-03T13:27:01.705Z,5.75
2023-05-03T13:28:03.415Z,5.43
2023-05-03T13:29:05.278Z,4.10
2023-05-03T13:30:08.793Z,4.05
2023-05-03T13:31:13.569Z,3.70
2023-05-03T13:32:15.373Z,3.38
2023-05-03T13:33:17.275Z,3.72
2023-05-03T13:34:18.990Z,3.30
2023-05-03T13:35:20.845Z,3.88
2023-05-03T13:36:23.756Z,3.88
2023-05-03T13:37:25.588Z,4.00
2023-05-03T13:38:27.285Z,4.20
2023-05-03T13:39:29.024Z,4.15
2023-05-03T13:40:30.752Z,3.85
2023-05-03T13:41:32.886Z,4.18
2023-05-03T13:42:35.134Z,3.70
2023-05-03T13:43:36.868Z,3.70
2023-05-03T13:44:38.748Z,4.35
2023-05-03T13:45:40.534Z,4.03
2023-05-03T13:46:43.576Z,3.97
2023-05-03T13:48:50.508Z,3.90
2023-05-03T13:49:56.512Z,4.10
2023-05-03T13:50:58.348Z,4.30
2023-05-03T13:52:00.047Z,4.25
2023-05-03T13:53:01.991Z,4.03
2023-05-03T13:54:05.741Z,4.40
2023-05-03T13:55:10.380Z,4.00
2023-05-03T13:56:12.127Z,4.90
2023-05-03T13:57:13.838Z,4.55
2023-05-03T13:58:15.535Z,5.03
2023-05-03T13:59:17.219Z,4.82
2023-05-03T14:00:20.915Z,4.97
2023-05-03T14:01:24.924Z,5.22
2023-05-03T14:02:27.334Z,5.57
2023-05-03T14:03:29.254Z,5.93
2023-05-03T14:04:31.898Z,5.90
2023-05-03T14:05:33.671Z,5.88
2023-05-03T14:06:37.055Z,5.75
2023-05-03T14:07:43.677Z,5.60
2023-05-03T14:08:45.540Z,5.07
2023-05-03T14:09:47.266Z,4.95
2023-05-03T14:10:49.423Z,5.60
2023-05-03T14:11:51.644Z,4.82
2023-05-03T14:12:53.578Z,3.90
2023-05-03T14:13:57.564Z,4.18
2023-05-03T14:15:03.681Z,4.22